sensor_id;sensor_type;location;lat;lon;timestamp;temperature;humidity
774;DHT22;370;48.810;9.150;2023-05-18T00:01:04;6.10;30.30
774;DHT22;370;48.810;9.150;2023-05-18T00:03:31;6.20;28.80
774;DHT22;370;48.810;9.150;2023-05-18T00:05:58;6.30;28.80
774;DHT22;370;48.810;9.150;2023-05-18T00:08:28;6.40;27.80
774;DHT22;370;48.810;9.150;2023-05-18T00:10:55;6.40;27.10
774;DHT22;370;48.810;9.150;2023-05-18T00:13:23;6.50;26.30
774;DHT22;370;48.810;9.150;2023-05-18T00:15:50;6.50;25.30
774;DHT22;370;48.810;9.150;2023-05-18T00:18:17;6.50;25.20
774;DHT22;370;48.810;9.150;2023-05-18T00:20:48;6.50;25.00
774;DHT22;370;48.810;9.150;2023-05-18T00:23:15;6.40;25.30
774;DHT22;370;48.810;9.150;2023-05-18T00:25:42;6.30;25.60
774;DHT22;370;48.810;9.150;2023-05-18T00:28:09;6.30;26.80
774;DHT22;370;48.810;9.150;2023-05-18T00:30:38;6.30;26.60
774;DHT22;370;48.810;9.150;2023-05-18T00:33:05;6.40;26.20
774;DHT22;370;48.810;9.150;2023-05-18T00:35:32;6.30;25.90
774;DHT22;370;48.810;9.150;2023-05-18T00:37:59;6.30;26.80
774;DHT22;370;48.810;9.150;2023-05-18T00:40:27;6.30;27.40
774;DHT22;370;48.810;9.150;2023-05-18T00:42:54;6.30;26.50
774;DHT22;370;48.810;9.150;2023-05-18T00:45:21;6.30;26.70
774;DHT22;370;48.810;9.150;2023-05-18T00:47:49;6.30;27.00
774;DHT22;370;48.810;9.150;2023-05-18T00:50:16;6.40;26.00
774;DHT22;370;48.810;9.150;2023-05-18T00:52:45;6.50;25.00
774;DHT22;370;48.810;9.150;2023-05-18T00:55:12;6.40;25.90
774;DHT22;370;48.810;9.150;2023-05-18T00:57:40;6.40;26.30
774;DHT22;370;48.810;9.150;2023-05-18T01:00:11;6.40;27.50
774;DHT22;370;48.810;9.150;2023-05-18T01:02:39;6.50;26.80
774;DHT22;370;48.810;9.150;2023-05-18T01:05:08;6.40;27.50
774;DHT22;370;48.810;9.150;2023-05-18T01:07:37;6.50;25.90
774;DHT22;370;48.810;9.150;2023-05-18T01:10:08;6.60;24.90
774;DHT22;370;48.810;9.150;2023-05-18T01:12:37;6.60;24.40
774;DHT22;370;48.810;9.150;2023-05-18T01:15:09;6.60;23.80
774;DHT22;370;48.810;9.150;2023-05-18T01:17:45;6.60;23.70
774;DHT22;370;48.810;9.150;2023-05-18T01:20:23;6.40;24.30
774;DHT22;370;48.810;9.150;2023-05-18T01:26:13;6.40;25.10
774;DHT22;370;48.810;9.150;2023-05-18T01:28:43;6.30;25.20
774;DHT22;370;48.810;9.150;2023-05-18T01:31:11;6.30;25.50
774;DHT22;370;48.810;9.150;2023-05-18T01:33:38;6.20;26.90
774;DHT22;370;48.810;9.150;2023-05-18T01:36:06;6.20;27.50
774;DHT22;370;48.810;9.150;2023-05-18T01:38:33;6.10;27.70
774;DHT22;370;48.810;9.150;2023-05-18T01:41:05;6.00;28.20
774;DHT22;370;48.810;9.150;2023-05-18T01:43:36;5.90;29.20
774;DHT22;370;48.810;9.150;2023-05-18T01:46:12;5.80;29.20
774;DHT22;370;48.810;9.150;2023-05-18T01:48:48;5.80;30.00
774;DHT22;370;48.810;9.150;2023-05-18T01:51:19;5.70;30.90
774;DHT22;370;48.810;9.150;2023-05-18T01:53:51;5.70;31.20
774;DHT22;370;48.810;9.150;2023-05-18T01:56:19;5.60;30.60
774;DHT22;370;48.810;9.150;2023-05-18T01:58:48;5.60;30.60
774;DHT22;370;48.810;9.150;2023-05-18T02:01:16;5.50;31.20
774;DHT22;370;48.810;9.150;2023-05-18T02:03:44;5.50;31.40
774;DHT22;370;48.810;9.150;2023-05-18T02:06:11;5.40;31.70
774;DHT22;370;48.810;9.150;2023-05-18T02:08:38;5.40;32.10
774;DHT22;370;48.810;9.150;2023-05-18T02:11:05;5.30;32.10
774;DHT22;370;48.810;9.150;2023-05-18T02:13:32;5.30;32.00
774;DHT22;370;48.810;9.150;2023-05-18T02:16:02;5.20;32.30
774;DHT22;370;48.810;9.150;2023-05-18T02:18:28;5.20;33.10
774;DHT22;370;48.810;9.150;2023-05-18T02:20:58;5.20;33.70
774;DHT22;370;48.810;9.150;2023-05-18T02:23:25;5.10;33.50
774;DHT22;370;48.810;9.150;2023-05-18T02:25:53;5.10;34.50
774;DHT22;370;48.810;9.150;2023-05-18T02:28:20;5.00;34.90
774;DHT22;370;48.810;9.150;2023-05-18T02:30:47;5.00;34.80
774;DHT22;370;48.810;9.150;2023-05-18T02:33:15;4.90;35.40
774;DHT22;370;48.810;9.150;2023-05-18T02:35:44;4.90;35.60
774;DHT22;370;48.810;9.150;2023-05-18T02:38:10;4.80;36.60
774;DHT22;370;48.810;9.150;2023-05-18T02:40:37;4.80;36.80
774;DHT22;370;48.810;9.150;2023-05-18T02:43:04;4.80;37.40
774;DHT22;370;48.810;9.150;2023-05-18T02:45:31;4.70;37.20
774;DHT22;370;48.810;9.150;2023-05-18T02:47:58;4.70;37.30
774;DHT22;370;48.810;9.150;2023-05-18T02:50:26;4.70;37.30
774;DHT22;370;48.810;9.150;2023-05-18T02:52:53;4.60;37.10
774;DHT22;370;48.810;9.150;2023-05-18T02:55:20;4.70;37.20
774;DHT22;370;48.810;9.150;2023-05-18T02:57:47;4.60;37.10
774;DHT22;370;48.810;9.150;2023-05-18T03:00:14;4.50;37.00
774;DHT22;370;48.810;9.150;2023-05-18T03:02:42;4.50;37.10
774;DHT22;370;48.810;9.150;2023-05-18T03:05:12;4.50;37.10
774;DHT22;370;48.810;9.150;2023-05-18T03:07:42;4.50;37.90
774;DHT22;370;48.810;9.150;2023-05-18T03:10:15;4.40;38.10
774;DHT22;370;48.810;9.150;2023-05-18T03:12:42;4.40;37.80
774;DHT22;370;48.810;9.150;2023-05-18T03:15:10;4.40;38.50
774;DHT22;370;48.810;9.150;2023-05-18T03:17:38;4.40;38.00
774;DHT22;370;48.810;9.150;2023-05-18T03:20:06;4.30;37.70
774;DHT22;370;48.810;9.150;2023-05-18T03:22:35;4.30;37.80
774;DHT22;370;48.810;9.150;2023-05-18T03:25:03;4.20;38.40
774;DHT22;370;48.810;9.150;2023-05-18T03:27:30;4.20;40.30
774;DHT22;370;48.810;9.150;2023-05-18T03:29:57;4.20;41.90
774;DHT22;370;48.810;9.150;2023-05-18T03:32:24;4.30;42.20
774;DHT22;370;48.810;9.150;2023-05-18T03:34:53;4.30;42.50
774;DHT22;370;48.810;9.150;2023-05-18T03:37:20;4.20;42.40
774;DHT22;370;48.810;9.150;2023-05-18T03:39:46;4.20;41.80
774;DHT22;370;48.810;9.150;2023-05-18T03:42:15;4.20;42.50
774;DHT22;370;48.810;9.150;2023-05-18T03:44:42;4.20;42.10
774;DHT22;370;48.810;9.150;2023-05-18T03:47:09;4.10;42.00
774;DHT22;370;48.810;9.150;2023-05-18T03:49:36;4.20;43.40
774;DHT22;370;48.810;9.150;2023-05-18T03:52:03;4.20;43.70
774;DHT22;370;48.810;9.150;2023-05-18T03:54:30;4.20;46.50
774;DHT22;370;48.810;9.150;2023-05-18T03:56:57;4.20;46.80
774;DHT22;370;48.810;9.150;2023-05-18T03:59:25;4.20;46.80
774;DHT22;370;48.810;9.150;2023-05-18T04:01:52;4.20;47.50
774;DHT22;370;48.810;9.150;2023-05-18T04:04:19;4.30;46.80
774;DHT22;370;48.810;9.150;2023-05-18T04:06:48;4.30;46.80
774;DHT22;370;48.810;9.150;2023-05-18T04:09:18;4.40;47.30
774;DHT22;370;48.810;9.150;2023-05-18T04:11:48;4.40;46.90
774;DHT22;370;48.810;9.150;2023-05-18T04:14:15;4.40;48.20
774;DHT22;370;48.810;9.150;2023-05-18T04:16:43;4.50;48.70
774;DHT22;370;48.810;9.150;2023-05-18T04:19:10;4.60;48.30
774;DHT22;370;48.810;9.150;2023-05-18T04:21:38;4.60;47.70
774;DHT22;370;48.810;9.150;2023-05-18T04:24:08;4.70;47.90
774;DHT22;370;48.810;9.150;2023-05-18T04:26:39;4.80;48.40
774;DHT22;370;48.810;9.150;2023-05-18T04:29:07;4.80;48.10
774;DHT22;370;48.810;9.150;2023-05-18T04:31:35;5.00;47.40
774;DHT22;370;48.810;9.150;2023-05-18T04:34:03;5.10;47.50
774;DHT22;370;48.810;9.150;2023-05-18T04:36:31;5.10;46.40
774;DHT22;370;48.810;9.150;2023-05-18T04:39:00;5.20;46.00
774;DHT22;370;48.810;9.150;2023-05-18T04:41:32;5.30;46.90
774;DHT22;370;48.810;9.150;2023-05-18T04:43:59;5.30;46.50
774;DHT22;370;48.810;9.150;2023-05-18T04:46:27;5.40;46.70
774;DHT22;370;48.810;9.150;2023-05-18T04:48:54;5.60;45.30
774;DHT22;370;48.810;9.150;2023-05-18T04:51:23;5.70;43.20
774;DHT22;370;48.810;9.150;2023-05-18T04:53:50;5.80;41.30
774;DHT22;370;48.810;9.150;2023-05-18T04:56:17;6.00;39.60
774;DHT22;370;48.810;9.150;2023-05-18T04:58:45;6.20;38.50
774;DHT22;370;48.810;9.150;2023-05-18T05:01:13;6.30;36.30
774;DHT22;370;48.810;9.150;2023-05-18T05:03:41;6.50;36.10
774;DHT22;370;48.810;9.150;2023-05-18T05:06:09;6.70;34.70
774;DHT22;370;48.810;9.150;2023-05-18T05:08:37;6.80;32.50
774;DHT22;370;48.810;9.150;2023-05-18T05:11:04;7.00;30.30
774;DHT22;370;48.810;9.150;2023-05-18T05:13:31;7.20;29.40
774;DHT22;370;48.810;9.150;2023-05-18T05:15:59;7.30;27.60
774;DHT22;370;48.810;9.150;2023-05-18T05:18:26;7.50;25.90
774;DHT22;370;48.810;9.150;2023-05-18T05:20:53;7.70;19.60
774;DHT22;370;48.810;9.150;2023-05-18T05:23:20;7.80;16.70
774;DHT22;370;48.810;9.150;2023-05-18T05:25:48;8.00;14.80
774;DHT22;370;48.810;9.150;2023-05-18T05:28:15;8.10;13.30
774;DHT22;370;48.810;9.150;2023-05-18T05:30:42;8.30;12.40
774;DHT22;370;48.810;9.150;2023-05-18T05:33:09;8.40;10.90
774;DHT22;370;48.810;9.150;2023-05-18T05:35:36;8.70;9.10
774;DHT22;370;48.810;9.150;2023-05-18T05:38:03;8.80;7.60
774;DHT22;370;48.810;9.150;2023-05-18T05:40:30;9.10;6.50
774;DHT22;370;48.810;9.150;2023-05-18T05:42:58;9.20;5.20
774;DHT22;370;48.810;9.150;2023-05-18T05:45:25;9.40;4.40
774;DHT22;370;48.810;9.150;2023-05-18T05:47:53;9.60;2.80
774;DHT22;370;48.810;9.150;2023-05-18T05:50:20;9.70;1.50
774;DHT22;370;48.810;9.150;2023-05-18T05:52:46;9.80;1.00
774;DHT22;370;48.810;9.150;2023-05-18T05:55:13;9.90;1.00
774;DHT22;370;48.810;9.150;2023-05-18T05:57:40;10.10;1.00
774;DHT22;370;48.810;9.150;2023-05-18T06:00:10;10.30;1.00
774;DHT22;370;48.810;9.150;2023-05-18T06:02:37;10.40;1.00
774;DHT22;370;48.810;9.150;2023-05-18T06:05:05;10.50;1.00
774;DHT22;370;48.810;9.150;2023-05-18T06:07:32;10.60;1.00
774;DHT22;370;48.810;9.150;2023-05-18T06:09:58;10.80;1.00
774;DHT22;370;48.810;9.150;2023-05-18T06:12:25;10.70;1.00
774;DHT22;370;48.810;9.150;2023-05-18T06:14:53;10.90;1.00
774;DHT22;370;48.810;9.150;2023-05-18T06:17:23;11.10;1.00
774;DHT22;370;48.810;9.150;2023-05-18T06:19:50;11.30;1.00
774;DHT22;370;48.810;9.150;2023-05-18T06:22:16;11.40;1.00
774;DHT22;370;48.810;9.150;2023-05-18T06:24:43;11.60;1.00
774;DHT22;370;48.810;9.150;2023-05-18T06:27:10;11.80;1.00
774;DHT22;370;48.810;9.150;2023-05-18T06:29:37;11.90;1.00
774;DHT22;370;48.810;9.150;2023-05-18T06:32:05;12.10;1.00
774;DHT22;370;48.810;9.150;2023-05-18T06:34:33;12.30;1.00
774;DHT22;370;48.810;9.150;2023-05-18T06:37:00;12.50;1.00
774;DHT22;370;48.810;9.150;2023-05-18T06:39:27;12.70;1.00
774;DHT22;370;48.810;9.150;2023-05-18T06:41:54;12.80;1.00
774;DHT22;370;48.810;9.150;2023-05-18T06:44:21;13.00;1.00
774;DHT22;370;48.810;9.150;2023-05-18T06:46:47;13.40;1.00
774;DHT22;370;48.810;9.150;2023-05-18T06:49:14;13.60;1.00
774;DHT22;370;48.810;9.150;2023-05-18T06:51:42;13.90;1.00
774;DHT22;370;48.810;9.150;2023-05-18T06:54:10;14.30;1.00
774;DHT22;370;48.810;9.150;2023-05-18T06:56:37;14.70;1.00
774;DHT22;370;48.810;9.150;2023-05-18T06:59:04;15.30;1.00
774;DHT22;370;48.810;9.150;2023-05-18T07:01:31;15.80;1.00
774;DHT22;370;48.810;9.150;2023-05-18T07:03:58;16.40;1.00
774;DHT22;370;48.810;9.150;2023-05-18T07:06:25;17.00;1.00
774;DHT22;370;48.810;9.150;2023-05-18T07:08:53;17.20;1.00
774;DHT22;370;48.810;9.150;2023-05-18T07:11:20;17.50;1.00
774;DHT22;370;48.810;9.150;2023-05-18T07:13:47;18.00;1.00
774;DHT22;370;48.810;9.150;2023-05-18T07:16:14;18.30;1.00
774;DHT22;370;48.810;9.150;2023-05-18T07:18:41;18.80;1.00
774;DHT22;370;48.810;9.150;2023-05-18T07:21:07;19.20;1.00
774;DHT22;370;48.810;9.150;2023-05-18T07:23:34;19.50;1.00
774;DHT22;370;48.810;9.150;2023-05-18T07:26:03;20.30;1.00
774;DHT22;370;48.810;9.150;2023-05-18T07:28:32;20.80;1.00
774;DHT22;370;48.810;9.150;2023-05-18T07:31:00;21.50;1.00
774;DHT22;370;48.810;9.150;2023-05-18T07:33:27;22.30;1.00
774;DHT22;370;48.810;9.150;2023-05-18T07:35:54;22.30;1.00
774;DHT22;370;48.810;9.150;2023-05-18T07:38:20;22.80;1.00
774;DHT22;370;48.810;9.150;2023-05-18T07:40:47;23.70;1.00
774;DHT22;370;48.810;9.150;2023-05-18T07:43:15;24.20;1.00
774;DHT22;370;48.810;9.150;2023-05-18T07:45:42;24.70;1.00
774;DHT22;370;48.810;9.150;2023-05-18T07:48:09;25.40;1.00
774;DHT22;370;48.810;9.150;2023-05-18T07:50:36;25.60;1.00
774;DHT22;370;48.810;9.150;2023-05-18T07:53:03;26.30;1.00
774;DHT22;370;48.810;9.150;2023-05-18T07:55:29;26.60;1.00
774;DHT22;370;48.810;9.150;2023-05-18T07:57:56;27.20;1.00
774;DHT22;370;48.810;9.150;2023-05-18T08:00:27;27.10;1.00
774;DHT22;370;48.810;9.150;2023-05-18T08:02:53;27.80;1.00
774;DHT22;370;48.810;9.150;2023-05-18T08:05:20;28.10;1.00
774;DHT22;370;48.810;9.150;2023-05-18T08:07:47;28.50;1.00
774;DHT22;370;48.810;9.150;2023-05-18T08:10:14;28.70;1.00
774;DHT22;370;48.810;9.150;2023-05-18T08:12:41;29.50;1.00
774;DHT22;370;48.810;9.150;2023-05-18T08:15:08;30.30;1.00
774;DHT22;370;48.810;9.150;2023-05-18T08:17:37;29.70;1.00
774;DHT22;370;48.810;9.150;2023-05-18T08:20:05;30.40;1.00
774;DHT22;370;48.810;9.150;2023-05-18T08:22:33;31.20;1.00
774;DHT22;370;48.810;9.150;2023-05-18T08:25:00;32.40;1.00
774;DHT22;370;48.810;9.150;2023-05-18T08:27:27;32.90;1.00
774;DHT22;370;48.810;9.150;2023-05-18T08:29:54;32.90;1.00
774;DHT22;370;48.810;9.150;2023-05-18T08:32:20;33.30;1.00
774;DHT22;370;48.810;9.150;2023-05-18T08:34:48;33.80;1.00
774;DHT22;370;48.810;9.150;2023-05-18T08:37:16;34.00;1.00
774;DHT22;370;48.810;9.150;2023-05-18T08:39:43;33.00;1.00
774;DHT22;370;48.810;9.150;2023-05-18T08:42:15;32.80;1.00
774;DHT22;370;48.810;9.150;2023-05-18T08:44:46;33.40;1.00
774;DHT22;370;48.810;9.150;2023-05-18T08:47:15;33.00;1.00
774;DHT22;370;48.810;9.150;2023-05-18T08:49:44;33.00;1.00
774;DHT22;370;48.810;9.150;2023-05-18T08:52:17;33.20;1.00
774;DHT22;370;48.810;9.150;2023-05-18T08:58:08;33.40;1.00
774;DHT22;370;48.810;9.150;2023-05-18T09:00:35;33.50;1.00
774;DHT22;370;48.810;9.150;2023-05-18T09:03:03;33.70;1.00
774;DHT22;370;48.810;9.150;2023-05-18T09:05:30;32.20;1.00
774;DHT22;370;48.810;9.150;2023-05-18T09:07:59;30.80;1.00
774;DHT22;370;48.810;9.150;2023-05-18T09:10:27;30.40;1.00
774;DHT22;370;48.810;9.150;2023-05-18T09:12:54;30.90;1.00
774;DHT22;370;48.810;9.150;2023-05-18T09:15:22;29.90;1.00
774;DHT22;370;48.810;9.150;2023-05-18T09:17:49;29.90;1.00
774;DHT22;370;48.810;9.150;2023-05-18T09:20:16;30.00;1.00
774;DHT22;370;48.810;9.150;2023-05-18T09:22:44;30.90;1.00
774;DHT22;370;48.810;9.150;2023-05-18T09:25:15;30.90;1.00
774;DHT22;370;48.810;9.150;2023-05-18T09:27:43;30.20;1.00
774;DHT22;370;48.810;9.150;2023-05-18T09:30:11;30.00;1.00
774;DHT22;370;48.810;9.150;2023-05-18T09:32:38;29.10;1.00
774;DHT22;370;48.810;9.150;2023-05-18T09:35:06;27.70;1.00
774;DHT22;370;48.810;9.150;2023-05-18T09:37:34;26.60;1.00
774;DHT22;370;48.810;9.150;2023-05-18T09:40:02;26.10;1.00
774;DHT22;370;48.810;9.150;2023-05-18T09:42:38;25.00;1.00
774;DHT22;370;48.810;9.150;2023-05-18T09:45:15;25.20;1.00
774;DHT22;370;48.810;9.150;2023-05-18T09:47:43;26.10;1.00
774;DHT22;370;48.810;9.150;2023-05-18T09:50:11;25.70;1.00
774;DHT22;370;48.810;9.150;2023-05-18T09:52:40;26.90;1.00
774;DHT22;370;48.810;9.150;2023-05-18T09:55:09;28.50;1.00
774;DHT22;370;48.810;9.150;2023-05-18T09:57:39;30.90;1.00
774;DHT22;370;48.810;9.150;2023-05-18T10:00:07;34.10;1.00
774;DHT22;370;48.810;9.150;2023-05-18T10:02:38;35.60;1.00
774;DHT22;370;48.810;9.150;2023-05-18T10:05:06;35.80;1.00
774;DHT22;370;48.810;9.150;2023-05-18T10:07:44;36.90;1.00
774;DHT22;370;48.810;9.150;2023-05-18T10:10:11;37.20;1.00
774;DHT22;370;48.810;9.150;2023-05-18T10:12:40;37.50;1.00
774;DHT22;370;48.810;9.150;2023-05-18T10:15:08;38.20;1.00
774;DHT22;370;48.810;9.150;2023-05-18T10:17:36;36.30;1.00
774;DHT22;370;48.810;9.150;2023-05-18T10:20:07;36.20;1.00
774;DHT22;370;48.810;9.150;2023-05-18T10:22:39;37.90;1.00
774;DHT22;370;48.810;9.150;2023-05-18T10:25:10;37.70;1.00
774;DHT22;370;48.810;9.150;2023-05-18T10:27:39;37.70;1.00
774;DHT22;370;48.810;9.150;2023-05-18T10:30:08;39.10;1.00
774;DHT22;370;48.810;9.150;2023-05-18T10:32:35;39.70;1.00
774;DHT22;370;48.810;9.150;2023-05-18T10:35:03;38.30;1.00
774;DHT22;370;48.810;9.150;2023-05-18T10:37:34;38.70;1.00
774;DHT22;370;48.810;9.150;2023-05-18T10:40:06;39.60;1.00
774;DHT22;370;48.810;9.150;2023-05-18T10:42:34;39.30;1.00
774;DHT22;370;48.810;9.150;2023-05-18T10:45:05;39.40;1.00
774;DHT22;370;48.810;9.150;2023-05-18T10:47:34;40.40;1.00
774;DHT22;370;48.810;9.150;2023-05-18T10:50:04;40.50;1.00
774;DHT22;370;48.810;9.150;2023-05-18T10:52:32;40.60;1.00
774;DHT22;370;48.810;9.150;2023-05-18T10:54:59;38.50;1.00
774;DHT22;370;48.810;9.150;2023-05-18T10:57:32;37.90;1.00
774;DHT22;370;48.810;9.150;2023-05-18T11:00:06;39.20;1.00
774;DHT22;370;48.810;9.150;2023-05-18T11:02:34;39.30;1.00
774;DHT22;370;48.810;9.150;2023-05-18T11:05:04;39.10;1.00
774;DHT22;370;48.810;9.150;2023-05-18T11:07:31;40.20;1.00
774;DHT22;370;48.810;9.150;2023-05-18T11:10:00;41.80;1.00
774;DHT22;370;48.810;9.150;2023-05-18T11:12:30;41.10;1.00
774;DHT22;370;48.810;9.150;2023-05-18T11:14:58;39.10;1.00
774;DHT22;370;48.810;9.150;2023-05-18T11:17:28;37.00;1.00
774;DHT22;370;48.810;9.150;2023-05-18T11:20:13;36.00;1.00
774;DHT22;370;48.810;9.150;2023-05-18T11:22:47;36.70;1.00
774;DHT22;370;48.810;9.150;2023-05-18T11:25:39;36.70;1.00
774;DHT22;370;48.810;9.150;2023-05-18T11:28:09;35.90;1.00
774;DHT22;370;48.810;9.150;2023-05-18T11:30:49;35.50;1.00
774;DHT22;370;48.810;9.150;2023-05-18T11:33:25;36.50;1.00
774;DHT22;370;48.810;9.150;2023-05-18T11:36:10;38.30;1.00
774;DHT22;370;48.810;9.150;2023-05-18T11:38:50;39.10;1.00
774;DHT22;370;48.810;9.150;2023-05-18T11:41:31;39.40;1.00
774;DHT22;370;48.810;9.150;2023-05-18T11:44:13;40.80;1.00
774;DHT22;370;48.810;9.150;2023-05-18T11:46:50;42.70;1.00
774;DHT22;370;48.810;9.150;2023-05-18T11:49:22;41.20;1.00
774;DHT22;370;48.810;9.150;2023-05-18T11:51:57;42.20;1.00
774;DHT22;370;48.810;9.150;2023-05-18T11:54:27;40.40;1.00
774;DHT22;370;48.810;9.150;2023-05-18T11:56:54;37.50;1.00
774;DHT22;370;48.810;9.150;2023-05-18T11:59:31;36.80;1.00
774;DHT22;370;48.810;9.150;2023-05-18T12:02:01;38.00;1.00
774;DHT22;370;48.810;9.150;2023-05-18T12:04:30;40.10;1.00
774;DHT22;370;48.810;9.150;2023-05-18T12:06:59;40.90;1.00
774;DHT22;370;48.810;9.150;2023-05-18T12:09:29;41.20;1.00
774;DHT22;370;48.810;9.150;2023-05-18T12:11:57;41.70;1.00
774;DHT22;370;48.810;9.150;2023-05-18T12:14:24;41.80;1.00
774;DHT22;370;48.810;9.150;2023-05-18T12:16:52;39.50;1.00
774;DHT22;370;48.810;9.150;2023-05-18T12:19:20;39.00;1.00
774;DHT22;370;48.810;9.150;2023-05-18T12:21:49;37.10;1.00
774;DHT22;370;48.810;9.150;2023-05-18T12:24:16;35.10;1.00
774;DHT22;370;48.810;9.150;2023-05-18T12:26:43;35.70;1.00
774;DHT22;370;48.810;9.150;2023-05-18T12:29:11;36.00;1.00
774;DHT22;370;48.810;9.150;2023-05-18T12:31:45;34.60;1.00
774;DHT22;370;48.810;9.150;2023-05-18T12:34:12;35.00;1.00
774;DHT22;370;48.810;9.150;2023-05-18T12:36:51;36.10;1.00
774;DHT22;370;48.810;9.150;2023-05-18T12:39:19;35.80;1.00
774;DHT22;370;48.810;9.150;2023-05-18T12:41:46;36.60;1.00
774;DHT22;370;48.810;9.150;2023-05-18T12:44:14;37.40;1.00
774;DHT22;370;48.810;9.150;2023-05-18T12:46:41;37.60;1.00
774;DHT22;370;48.810;9.150;2023-05-18T12:49:09;38.10;1.00
774;DHT22;370;48.810;9.150;2023-05-18T12:51:38;37.30;1.00
774;DHT22;370;48.810;9.150;2023-05-18T12:54:07;35.40;1.00
774;DHT22;370;48.810;9.150;2023-05-18T12:56:53;36.00;1.00
774;DHT22;370;48.810;9.150;2023-05-18T12:59:24;35.50;1.00
774;DHT22;370;48.810;9.150;2023-05-18T13:01:51;36.50;1.00
774;DHT22;370;48.810;9.150;2023-05-18T13:04:18;36.80;1.00
774;DHT22;370;48.810;9.150;2023-05-18T13:06:45;35.60;1.00
774;DHT22;370;48.810;9.150;2023-05-18T13:09:14;33.90;1.00
774;DHT22;370;48.810;9.150;2023-05-18T13:11:46;32.10;1.00
774;DHT22;370;48.810;9.150;2023-05-18T13:14:13;31.40;1.00
774;DHT22;370;48.810;9.150;2023-05-18T13:16:49;31.20;1.00
774;DHT22;370;48.810;9.150;2023-05-18T13:19:17;31.30;1.00
774;DHT22;370;48.810;9.150;2023-05-18T13:21:44;30.80;1.00
774;DHT22;370;48.810;9.150;2023-05-18T13:24:13;31.60;1.00
774;DHT22;370;48.810;9.150;2023-05-18T13:26:40;30.80;1.00
774;DHT22;370;48.810;9.150;2023-05-18T13:29:07;29.70;1.00
774;DHT22;370;48.810;9.150;2023-05-18T13:31:34;28.20;1.00
774;DHT22;370;48.810;9.150;2023-05-18T13:34:01;27.20;1.00
774;DHT22;370;48.810;9.150;2023-05-18T13:36:28;26.90;1.00
774;DHT22;370;48.810;9.150;2023-05-18T13:38:57;25.80;1.00
774;DHT22;370;48.810;9.150;2023-05-18T13:41:25;24.70;1.00
774;DHT22;370;48.810;9.150;2023-05-18T13:43:52;25.50;1.00
774;DHT22;370;48.810;9.150;2023-05-18T13:46:19;27.00;1.00
774;DHT22;370;48.810;9.150;2023-05-18T13:48:46;28.10;1.00
774;DHT22;370;48.810;9.150;2023-05-18T13:51:13;28.90;1.00
774;DHT22;370;48.810;9.150;2023-05-18T13:53:40;29.80;1.00
774;DHT22;370;48.810;9.150;2023-05-18T13:56:07;29.40;1.00
774;DHT22;370;48.810;9.150;2023-05-18T13:58:35;28.90;1.00
774;DHT22;370;48.810;9.150;2023-05-18T14:01:02;28.90;1.00
774;DHT22;370;48.810;9.150;2023-05-18T14:03:32;28.60;1.00
774;DHT22;370;48.810;9.150;2023-05-18T14:06:01;29.90;1.00
774;DHT22;370;48.810;9.150;2023-05-18T14:08:28;31.20;1.00
774;DHT22;370;48.810;9.150;2023-05-18T14:10:54;32.70;1.00
774;DHT22;370;48.810;9.150;2023-05-18T14:13:21;33.20;1.00
774;DHT22;370;48.810;9.150;2023-05-18T14:15:49;31.80;1.00
774;DHT22;370;48.810;9.150;2023-05-18T14:18:16;31.40;1.00
774;DHT22;370;48.810;9.150;2023-05-18T14:20:43;31.40;1.00
774;DHT22;370;48.810;9.150;2023-05-18T14:23:12;31.30;1.00
774;DHT22;370;48.810;9.150;2023-05-18T14:25:39;32.50;1.00
774;DHT22;370;48.810;9.150;2023-05-18T14:28:08;33.90;1.00
774;DHT22;370;48.810;9.150;2023-05-18T14:30:35;34.30;1.00
774;DHT22;370;48.810;9.150;2023-05-18T14:33:03;32.50;1.00
774;DHT22;370;48.810;9.150;2023-05-18T14:35:30;31.10;1.00
774;DHT22;370;48.810;9.150;2023-05-18T14:37:57;30.10;1.00
774;DHT22;370;48.810;9.150;2023-05-18T14:40:23;29.70;1.00
774;DHT22;370;48.810;9.150;2023-05-18T14:42:50;28.60;1.00
774;DHT22;370;48.810;9.150;2023-05-18T14:45:17;27.70;1.00
774;DHT22;370;48.810;9.150;2023-05-18T14:47:44;26.70;1.00
774;DHT22;370;48.810;9.150;2023-05-18T14:50:13;26.50;1.00
774;DHT22;370;48.810;9.150;2023-05-18T14:52:41;26.30;1.00
774;DHT22;370;48.810;9.150;2023-05-18T14:55:09;25.70;1.00
774;DHT22;370;48.810;9.150;2023-05-18T14:57:36;25.00;1.00
774;DHT22;370;48.810;9.150;2023-05-18T15:00:03;25.80;1.00
774;DHT22;370;48.810;9.150;2023-05-18T15:02:30;27.10;1.00
774;DHT22;370;48.810;9.150;2023-05-18T15:04:57;28.90;1.00
774;DHT22;370;48.810;9.150;2023-05-18T15:07:26;30.60;1.00
774;DHT22;370;48.810;9.150;2023-05-18T15:09:52;30.80;1.00
774;DHT22;370;48.810;9.150;2023-05-18T15:12:20;29.70;1.00
774;DHT22;370;48.810;9.150;2023-05-18T15:14:47;28.40;1.00
774;DHT22;370;48.810;9.150;2023-05-18T15:17:15;26.90;1.00
774;DHT22;370;48.810;9.150;2023-05-18T15:19:42;25.90;1.00
774;DHT22;370;48.810;9.150;2023-05-18T15:22:09;25.00;1.00
774;DHT22;370;48.810;9.150;2023-05-18T15:24:37;24.50;1.00
774;DHT22;370;48.810;9.150;2023-05-18T15:27:04;23.90;1.00
774;DHT22;370;48.810;9.150;2023-05-18T15:29:31;23.50;1.00
774;DHT22;370;48.810;9.150;2023-05-18T15:31:58;23.20;1.00
774;DHT22;370;48.810;9.150;2023-05-18T15:34:25;23.10;1.00
774;DHT22;370;48.810;9.150;2023-05-18T15:36:52;22.90;1.00
774;DHT22;370;48.810;9.150;2023-05-18T15:39:19;22.90;1.00
774;DHT22;370;48.810;9.150;2023-05-18T15:41:47;22.90;1.00
774;DHT22;370;48.810;9.150;2023-05-18T15:44:14;23.30;1.00
774;DHT22;370;48.810;9.150;2023-05-18T15:46:40;23.10;1.00
774;DHT22;370;48.810;9.150;2023-05-18T15:49:08;22.80;1.00
774;DHT22;370;48.810;9.150;2023-05-18T15:51:35;22.60;1.00
774;DHT22;370;48.810;9.150;2023-05-18T15:54:02;22.30;1.00
774;DHT22;370;48.810;9.150;2023-05-18T15:56:29;21.80;1.00
774;DHT22;370;48.810;9.150;2023-05-18T15:58:57;21.50;1.00
774;DHT22;370;48.810;9.150;2023-05-18T16:01:24;21.20;1.00
774;DHT22;370;48.810;9.150;2023-05-18T16:03:51;20.90;1.00
774;DHT22;370;48.810;9.150;2023-05-18T16:06:17;20.80;1.00
774;DHT22;370;48.810;9.150;2023-05-18T16:08:44;20.60;1.00
774;DHT22;370;48.810;9.150;2023-05-18T16:11:11;20.50;1.00
774;DHT22;370;48.810;9.150;2023-05-18T16:13:38;20.30;1.00
774;DHT22;370;48.810;9.150;2023-05-18T16:16:06;20.00;1.00
774;DHT22;370;48.810;9.150;2023-05-18T16:18:34;19.90;1.00
774;DHT22;370;48.810;9.150;2023-05-18T16:21:01;19.80;1.00
774;DHT22;370;48.810;9.150;2023-05-18T16:23:28;19.70;1.00
774;DHT22;370;48.810;9.150;2023-05-18T16:25:55;19.60;1.00
774;DHT22;370;48.810;9.150;2023-05-18T16:28:22;19.40;1.00
774;DHT22;370;48.810;9.150;2023-05-18T16:30:49;19.10;1.00
774;DHT22;370;48.810;9.150;2023-05-18T16:33:17;18.90;1.00
774;DHT22;370;48.810;9.150;2023-05-18T16:35:44;18.90;1.00
774;DHT22;370;48.810;9.150;2023-05-18T16:38:11;18.90;1.00
774;DHT22;370;48.810;9.150;2023-05-18T16:40:38;18.90;1.00
774;DHT22;370;48.810;9.150;2023-05-18T16:43:05;18.90;1.00
774;DHT22;370;48.810;9.150;2023-05-18T16:45:32;19.10;1.00
774;DHT22;370;48.810;9.150;2023-05-18T16:47:59;19.20;1.00
774;DHT22;370;48.810;9.150;2023-05-18T16:50:29;19.10;1.00
774;DHT22;370;48.810;9.150;2023-05-18T16:52:56;19.30;1.00
774;DHT22;370;48.810;9.150;2023-05-18T16:55:23;19.30;1.00
774;DHT22;370;48.810;9.150;2023-05-18T16:57:50;19.40;1.00
774;DHT22;370;48.810;9.150;2023-05-18T17:00:17;19.40;1.00
774;DHT22;370;48.810;9.150;2023-05-18T17:02:44;19.50;1.00
774;DHT22;370;48.810;9.150;2023-05-18T17:05:11;19.40;1.00